Terminal Aerodrome Forecast
Issued by NWS

Home | Current Version | Previous Version | Text Only | Print | Product List | Glossary On
Versions: 1 2 3 4 5 6 7 8 9 10 11 12 13 14 15 16 17 18 19 20 21 22 23 24 25 26 27
938
FTUS43 KILX 202338
TAFCMI
TAF
KCMI 202338Z 2100/2124 15016KT P6SM SCT080 BKN200
     FM210900 20010KT 3SM -SHRA BR OVC015
     FM211300 20006KT 2SM BR VCSH BKN006 OVC012
     FM211600 26005KT 4SM BR SCT006 BKN015
     FM211800 31004KT P6SM BKN025
     FM212100 30005KT P6SM BKN250=

USA.gov is the U.S. government's official web portal to all federal, state and local government web resources and services.